Time;durP1;ratioP1;P1;durP2;ratioP2;P2;SDS_P1;SDS_P2;PMS_P1;PMS_P2;Temp;Humidity;BMP_temperature;BMP_pressure;BME280_temperature;BME280_humidity;BME280_pressure;Samples;Min_cycle;Max_cycle;Signal;HPM_P1;HPM_P2
2022/12/07 00:01:34;;;;;;;27.33;20.03;;;;;;;4.00;89.36;101320.72;5113500;28;20192;-70
2022/12/07 00:04:05;;;;;;;28.20;20.23;;;;;;;3.94;89.38;101327.06;5113446;28;20213;-70
2022/12/07 00:06:33;;;;;;;29.97;20.03;;;;;;;3.91;89.64;101331.63;5113545;28;20184;-70
2022/12/07 00:08:59;;;;;;;37.47;20.87;;;;;;;3.90;89.55;101332.53;5113445;28;20647;-70
2022/12/07 00:11:26;;;;;;;29.93;20.37;;;;;;;3.87;89.75;101328.22;5113177;28;20674;-70
2022/12/07 00:13:58;;;;;;;29.60;20.83;;;;;;;3.97;89.60;101319.00;5112975;28;20219;-70
2022/12/07 00:16:27;;;;;;;27.50;19.80;;;;;;;3.94;89.94;101324.44;5113704;28;20179;-70
2022/12/07 00:18:54;;;;;;;38.67;22.77;;;;;;;3.95;89.52;101320.88;5113113;28;20193;-70
2022/12/07 00:21:29;;;;;;;29.23;21.90;;;;;;;4.00;89.95;101310.13;5113984;28;20685;-70
2022/12/07 00:23:56;;;;;;;34.70;21.80;;;;;;;3.96;89.47;101311.13;5116953;28;20201;-70
2022/12/07 00:26:29;;;;;;;26.53;20.93;;;;;;;4.00;90.21;101315.41;5116672;28;20193;-70
2022/12/07 00:29:01;;;;;;;30.63;22.27;;;;;;;4.04;89.57;101317.88;5117030;28;20184;-70
2022/12/07 00:31:33;;;;;;;36.33;22.33;;;;;;;4.03;89.48;101318.81;5117435;28;20533;-70
2022/12/07 00:33:59;;;;;;;26.57;20.80;;;;;;;4.04;89.79;101307.28;5116640;28;20237;-70
2022/12/07 00:36:26;;;;;;;30.13;21.07;;;;;;;4.07;90.43;101305.44;5116494;28;20181;-70
2022/12/07 00:38:54;;;;;;;30.23;21.83;;;;;;;4.13;90.06;101307.91;5116443;28;20197;-70
2022/12/07 00:41:23;;;;;;;29.63;22.20;;;;;;;4.07;90.18;101311.63;5116416;28;20668;-70
2022/12/07 00:43:50;;;;;;;36.60;22.73;;;;;;;4.05;90.47;101305.53;5116311;28;20193;-70
2022/12/07 00:46:18;;;;;;;33.50;22.47;;;;;;;4.09;90.51;101303.63;5116307;28;20193;-70
2022/12/07 00:48:45;;;;;;;36.77;23.00;;;;;;;4.13;89.78;101310.53;5116243;28;20238;-70
2022/12/07 00:51:14;;;;;;;36.40;24.23;;;;;;;4.17;89.59;101305.06;5116425;28;20185;-70
2022/12/07 00:53:41;;;;;;;36.77;24.37;;;;;;;4.21;89.69;101300.50;5115994;28;20204;-70
2022/12/07 00:56:15;;;;;;;38.13;23.33;;;;;;;4.21;89.56;101301.41;5116635;28;20188;-70
2022/12/07 00:58:41;;;;;;;35.23;23.67;;;;;;;4.21;90.05;101301.41;5116345;28;20689;-70
2022/12/07 01:01:09;;;;;;;37.30;23.90;;;;;;;4.18;89.78;101306.78;5116035;28;20184;-70
2022/12/07 01:03:37;;;;;;;35.30;24.53;;;;;;;4.28;89.78;101294.06;5116224;28;20200;-70
2022/12/07 01:06:04;;;;;;;35.53;24.03;;;;;;;4.22;89.53;101287.22;5115907;28;20283;-70
2022/12/07 01:08:31;;;;;;;38.77;25.50;;;;;;;4.23;89.72;101291.59;5116523;28;20180;-70
2022/12/07 01:11:06;;;;;;;41.23;25.20;;;;;;;4.22;89.96;101287.22;5116064;28;20193;-70
2022/12/07 01:13:34;;;;;;;37.30;25.93;;;;;;;4.23;90.06;101285.44;5116195;28;20247;-70
2022/12/07 01:16:04;;;;;;;35.27;24.23;;;;;;;4.26;89.41;101285.31;5116289;28;20191;-70
2022/12/07 01:18:32;;;;;;;50.97;25.07;;;;;;;4.21;89.40;101290.81;5115697;28;20191;-70
2022/12/07 01:21:02;;;;;;;40.97;24.83;;;;;;;4.25;89.71;101289.75;5115867;28;20193;-70
2022/12/07 01:23:29;;;;;;;35.03;23.43;;;;;;;4.25;89.89;101286.25;5115859;28;20184;-70
2022/12/07 01:26:00;;;;;;;42.33;23.67;;;;;;;4.19;89.33;101287.34;5115821;28;20188;-70
2022/12/07 01:28:26;;;;;;;35.87;24.63;;;;;;;4.14;89.41;101294.59;5115766;28;20709;-70
2022/12/07 01:31:02;;;;;;;37.33;25.17;;;;;;;4.20;89.77;101299.66;5115470;28;20423;-70
2022/12/07 01:33:30;;;;;;;36.43;24.20;;;;;;;4.20;89.58;101290.84;5114232;28;22490;-70
2022/12/07 01:36:20;;;;;;;37.03;23.77;;;;;;;4.16;89.26;101286.56;5115327;28;20181;-70
2022/12/07 01:38:48;;;;;;;32.53;23.60;;;;;;;4.11;89.71;101292.03;5100112;28;20197;-70
2022/12/07 01:41:15;;;;;;;40.87;24.27;;;;;;;4.13;89.61;101294.63;5115528;28;20614;-70
2022/12/07 01:44:19;;;;;;;38.23;25.03;;;;;;;4.14;89.84;101304.31;5115687;28;20189;-70
2022/12/07 01:46:56;;;;;;;39.07;23.80;;;;;;;4.09;90.15;101300.97;5115733;28;20191;-70
2022/12/07 01:49:33;;;;;;;41.67;25.20;;;;;;;4.09;89.28;101296.50;5115389;28;20640;-70
2022/12/07 01:52:03;;;;;;;40.07;24.57;;;;;;;4.07;89.69;101298.38;5115076;28;20180;-70
2022/12/07 01:54:31;;;;;;;41.03;25.37;;;;;;;4.00;90.04;101297.72;5115346;28;20597;-70
2022/12/07 01:56:58;;;;;;;38.37;22.87;;;;;;;4.00;89.68;101294.22;5114922;28;20189;-70
2022/12/07 01:59:26;;;;;;;39.83;25.17;;;;;;;4.01;89.80;101303.88;5115176;28;20258;-70
2022/12/07 02:01:55;;;;;;;39.60;25.30;;;;;;;3.96;89.40;101292.59;5114816;28;20184;-70
2022/12/07 02:04:22;;;;;;;37.97;24.90;;;;;;;3.99;89.83;101295.13;5114708;28;20215;-70
2022/12/07 02:06:50;;;;;;;48.13;26.23;;;;;;;3.98;89.30;101299.56;5114801;28;20189;-70
2022/12/07 02:09:16;;;;;;;37.83;23.40;;;;;;;4.00;89.85;101283.63;5114933;28;20185;-70
2022/12/07 02:11:42;;;;;;;43.03;24.17;;;;;;;4.00;89.35;101284.47;5114635;28;20188;-70
2022/12/07 02:14:09;;;;;;;37.50;25.00;;;;;;;3.98;89.19;101285.47;5114750;28;20216;-70
2022/12/07 02:16:53;;;;;;;37.23;25.33;;;;;;;4.01;89.37;101282.69;5114534;28;20193;-70
2022/12/07 02:19:51;;;;;;;40.13;25.87;;;;;;;4.00;89.23;101278.31;5114545;28;20198;-70
2022/12/07 02:22:37;;;;;;;39.73;24.83;;;;;;;3.93;90.19;101277.66;5114681;28;20200;-70
2022/12/07 02:25:09;;;;;;;31.10;22.63;;;;;;;3.95;90.05;101273.19;5114481;28;20201;-70
2022/12/07 02:28:06;;;;;;;42.53;26.97;;;;;;;3.94;89.58;101279.38;5114936;28;20173;-70
2022/12/07 02:30:40;;;;;;;35.10;24.50;;;;;;;3.87;89.58;101283.16;5114655;28;20177;-70
2022/12/07 02:33:16;;;;;;;40.53;23.57;;;;;;;3.85;89.08;101285.00;5114280;28;20625;-70
2022/12/07 02:35:48;;;;;;;35.17;23.27;;;;;;;3.75;89.26;101294.19;5114389;28;20213;-70
2022/12/07 02:38:24;;;;;;;37.70;25.37;;;;;;;3.71;89.38;101288.16;5114790;28;20251;-71
2022/12/07 02:41:00;;;;;;;41.33;26.07;;;;;;;3.70;89.82;101283.75;5114466;28;20180;-70
2022/12/07 02:43:57;;;;;;;39.20;24.07;;;;;;;3.61;88.60;101289.34;5114577;28;20180;-70
2022/12/07 02:46:29;;;;;;;44.97;24.47;;;;;;;3.56;89.20;101286.00;5106535;28;20204;-70
2022/12/07 02:48:59;;;;;;;51.00;25.10;;;;;;;3.51;89.63;101287.94;5114353;28;20251;-70
2022/12/07 02:51:29;;;;;;;39.50;24.83;;;;;;;3.52;89.32;101287.00;5114252;28;20198;-70
2022/12/07 02:53:55;;;;;;;40.83;23.67;;;;;;;3.47;89.03;101283.66;5114082;28;20211;-70
2022/12/07 02:56:35;;;;;;;34.00;22.40;;;;;;;3.36;88.84;101284.88;5114189;28;20669;-70
2022/12/07 02:59:17;;;;;;;31.57;23.43;;;;;;;3.39;88.71;101286.56;5114447;28;20177;-70
2022/12/07 03:02:11;;;;;;;37.00;23.50;;;;;;;3.35;88.60;101287.56;5114175;28;20270;-70
2022/12/07 03:05:02;;;;;;;37.03;24.07;;;;;;;3.29;90.10;101280.72;5113991;28;20328;-70
2022/12/07 03:08:06;;;;;;;46.50;24.03;;;;;;;3.25;89.86;101286.16;5114603;28;20191;-70
2022/12/07 03:10:36;;;;;;;34.63;23.80;;;;;;;3.15;89.80;101282.94;5113797;28;20694;-70
2022/12/07 03:13:10;;;;;;;38.50;23.53;;;;;;;3.09;89.68;101288.41;5113809;28;20630;-70
2022/12/07 03:15:49;;;;;;;38.03;22.77;;;;;;;3.09;89.69;101294.59;5113908;28;20211;-70
2022/12/07 03:18:20;;;;;;;36.70;24.87;;;;;;;3.00;90.03;101294.03;5114016;28;20173;-70
2022/12/07 03:20:52;;;;;;;34.87;23.73;;;;;;;2.98;89.72;101297.56;5114024;28;20649;-70
2022/12/07 03:23:20;;;;;;;39.27;23.77;;;;;;;2.89;89.69;101295.19;5113951;28;20176;-70
2022/12/07 03:25:52;;;;;;;41.57;25.73;;;;;;;2.89;89.48;101289.91;5113520;28;20689;-70
2022/12/07 03:28:31;;;;;;;33.27;23.00;;;;;;;2.95;89.71;101294.16;5113942;28;20206;-70
2022/12/07 03:31:02;;;;;;;36.70;24.13;;;;;;;2.90;89.71;101296.94;5113887;28;20649;-70
2022/12/07 03:33:36;;;;;;;37.00;23.33;;;;;;;2.90;89.54;101290.81;5113751;28;20263;-70
2022/12/07 03:36:18;;;;;;;36.80;22.80;;;;;;;2.76;89.70;101285.94;5114030;28;20187;-70
2022/12/07 03:38:57;;;;;;;33.47;23.03;;;;;;;2.72;89.74;101282.50;5113795;28;20183;-70
2022/12/07 03:41:31;;;;;;;35.13;24.07;;;;;;;2.62;90.24;101282.81;5113795;28;20176;-70
2022/12/07 03:43:58;;;;;;;39.63;24.13;;;;;;;2.62;90.48;101282.81;5113955;28;20211;-70
2022/12/07 03:46:42;;;;;;;42.50;23.07;;;;;;;2.59;90.55;101281.16;5113412;28;20187;-70
2022/12/07 03:49:33;;;;;;;44.17;23.73;;;;;;;2.63;90.01;101284.53;5113471;28;20184;-70
2022/12/07 03:52:13;;;;;;;35.10;24.10;;;;;;;2.66;90.64;101277.41;5114202;28;20178;-70
2022/12/07 03:54:48;;;;;;;37.60;23.67;;;;;;;2.61;90.80;101274.03;5113780;28;20243;-70
2022/12/07 03:57:15;;;;;;;35.37;22.73;;;;;;;2.63;90.68;101280.13;5116413;28;20186;-70
2022/12/07 03:59:43;;;;;;;37.60;23.57;;;;;;;2.54;90.35;101276.00;5117769;28;20192;-70
2022/12/07 04:02:12;;;;;;;42.30;23.23;;;;;;;2.59;90.68;101275.84;5117499;28;20261;-70
2022/12/07 04:04:39;;;;;;;37.70;23.80;;;;;;;2.54;91.11;101275.13;5117052;28;20618;-70
2022/12/07 04:07:05;;;;;;;37.67;23.43;;;;;;;2.51;90.99;101276.09;5116993;28;20184;-70
2022/12/07 04:09:32;;;;;;;42.40;24.50;;;;;;;2.68;91.46;101277.34;5117348;28;20180;-70
2022/12/07 04:11:58;;;;;;;33.80;22.67;;;;;;;2.68;91.17;101278.22;5116825;28;20189;-70
2022/12/07 04:14:24;;;;;;;40.57;23.57;;;;;;;2.71;91.48;101287.84;5116811;28;20214;-70
2022/12/07 04:16:57;;;;;;;31.37;23.03;;;;;;;2.70;91.25;101273.72;5116934;28;20175;-70
2022/12/07 04:19:26;;;;;;;35.30;22.30;;;;;;;2.68;90.97;101277.34;5117171;28;20636;-70
2022/12/07 04:21:54;;;;;;;31.70;20.30;;;;;;;2.70;91.25;101276.38;5117007;28;20192;-70
2022/12/07 04:24:21;;;;;;;32.23;20.10;;;;;;;2.79;90.46;101274.38;5116778;28;20199;-70
2022/12/07 04:26:47;;;;;;;32.37;22.63;;;;;;;2.69;90.87;101279.09;5116697;28;20191;-70
2022/12/07 04:29:16;;;;;;;31.50;22.23;;;;;;;2.62;90.33;101281.03;5116672;28;20187;-70
2022/12/07 04:31:43;;;;;;;40.70;21.57;;;;;;;2.52;91.00;101280.44;5116633;28;20179;-70
2022/12/07 04:34:10;;;;;;;33.80;21.87;;;;;;;2.60;90.44;101282.00;5116984;28;20284;-70
2022/12/07 04:36:36;;;;;;;34.97;21.80;;;;;;;2.52;90.53;101269.88;5116973;28;20181;-70
2022/12/07 04:39:04;;;;;;;38.17;22.83;;;;;;;2.55;90.79;101275.06;5116744;28;20201;-70
2022/12/07 04:41:31;;;;;;;31.53;22.40;;;;;;;2.65;90.65;101278.28;5116988;28;20205;-70
2022/12/07 04:44:00;;;;;;;38.03;22.87;;;;;;;2.71;90.54;101282.56;5116549;28;20205;-70
2022/12/07 04:46:28;;;;;;;36.30;20.93;;;;;;;2.62;90.32;101278.41;5116297;28;20185;-70
2022/12/07 04:48:55;;;;;;;34.23;20.67;;;;;;;2.63;90.61;101273.97;5116246;28;20199;-70
2022/12/07 04:51:25;;;;;;;33.83;22.47;;;;;;;2.64;90.52;101278.38;5116241;28;20194;-70
2022/12/07 04:53:51;;;;;;;30.63;20.73;;;;;;;2.60;90.47;101271.44;5116115;28;20602;-70
2022/12/07 04:56:18;;;;;;;40.57;22.20;;;;;;;2.61;90.55;101274.03;5116292;28;20212;-70
2022/12/07 04:58:46;;;;;;;27.77;21.97;;;;;;;2.61;89.72;101267.84;5116088;28;20189;-70
2022/12/07 05:01:16;;;;;;;32.80;21.60;;;;;;;2.58;90.12;101273.25;5116562;28;20647;-70
2022/12/07 05:03:43;;;;;;;31.20;21.33;;;;;;;2.62;90.54;101267.81;5115933;28;20259;-70
2022/12/07 05:06:10;;;;;;;37.40;23.23;;;;;;;2.62;90.60;101269.59;5116580;28;20499;-70
2022/12/07 05:08:39;;;;;;;37.87;20.53;;;;;;;2.55;91.11;101263.63;5116087;28;20575;-70
2022/12/07 05:11:07;;;;;;;34.07;21.20;;;;;;;2.55;90.90;101263.63;5116126;28;20190;-70
2022/12/07 05:13:35;;;;;;;36.67;20.73;;;;;;;2.57;90.65;101272.38;5116289;28;20196;-70
2022/12/07 05:16:02;;;;;;;34.67;20.20;;;;;;;2.56;90.88;101270.63;5115714;28;20213;-70
2022/12/07 05:18:28;;;;;;;34.53;20.33;;;;;;;2.60;90.26;101266.13;5115975;28;20183;-70
2022/12/07 05:20:55;;;;;;;30.50;20.27;;;;;;;2.51;89.95;101268.16;5116062;28;20202;-70
2022/12/07 05:23:21;;;;;;;26.00;19.40;;;;;;;2.50;90.41;101261.13;5119813;28;20183;-70
2022/12/07 05:25:47;;;;;;;31.97;20.83;;;;;;;2.46;90.44;101262.13;5117586;28;20211;-70
2022/12/07 05:28:14;;;;;;;30.20;21.10;;;;;;;2.47;90.26;101271.78;5116225;28;20192;-70
2022/12/07 05:30:40;;;;;;;28.73;20.93;;;;;;;2.51;90.61;101275.19;5116080;28;20265;-70
2022/12/07 05:33:06;;;;;;;33.47;21.33;;;;;;;2.54;90.57;101267.19;5116154;28;20192;-70
2022/12/07 05:35:33;;;;;;;34.97;21.70;;;;;;;2.59;89.87;101269.72;5097478;28;20254;-70
2022/12/07 05:37:59;;;;;;;42.57;23.67;;;;;;;2.62;89.71;101265.19;5115466;28;20188;-70
2022/12/07 05:40:26;;;;;;;40.83;23.00;;;;;;;2.59;89.95;101273.22;5116881;28;20195;-70
2022/12/07 05:42:52;;;;;;;42.23;22.77;;;;;;;2.57;90.83;101269.75;5118519;28;20225;-71
2022/12/07 05:45:18;;;;;;;41.97;23.03;;;;;;;2.55;90.45;101268.91;5117878;28;20208;-71
2022/12/07 05:47:45;;;;;;;35.80;23.40;;;;;;;2.51;91.04;101269.91;5116772;28;20195;-71
2022/12/07 05:50:11;;;;;;;38.97;22.17;;;;;;;2.56;91.27;101265.34;5116943;28;20190;-71
2022/12/07 05:52:37;;;;;;;40.97;21.70;;;;;;;2.56;90.32;101262.72;5115385;28;20191;-71
2022/12/07 05:55:04;;;;;;;42.70;22.63;;;;;;;2.58;91.12;101262.66;5115612;28;20227;-71
2022/12/07 05:57:30;;;;;;;37.07;24.00;;;;;;;2.60;90.66;101261.72;5115162;28;20197;-71
2022/12/07 05:59:57;;;;;;;33.23;21.97;;;;;;;2.65;91.09;101266.88;5115192;28;20613;-71
2022/12/07 06:02:23;;;;;;;35.77;22.30;;;;;;;2.66;90.23;101268.59;5115208;28;20193;-70
2022/12/07 06:04:49;;;;;;;34.40;21.93;;;;;;;2.67;90.94;101259.75;5115141;28;20247;-70
2022/12/07 06:07:16;;;;;;;33.80;21.87;;;;;;;2.66;90.62;101263.28;5114767;28;20198;-71
2022/12/07 06:09:43;;;;;;;35.60;20.23;;;;;;;2.63;90.71;101263.41;5115299;28;20195;-71
2022/12/07 06:14:58;;;;;;;33.67;19.40;;;;;;;2.68;90.90;101266.75;5114895;28;20221;-71
2022/12/07 06:17:24;;;;;;;38.23;21.23;;;;;;;2.64;90.85;101263.34;5115398;28;20190;-71
2022/12/07 06:19:51;;;;;;;33.27;20.40;;;;;;;2.66;90.59;101250.97;5113862;28;20195;-71
2022/12/07 06:22:17;;;;;;;37.63;20.83;;;;;;;2.66;90.50;101264.19;5114619;28;20192;-71
2022/12/07 06:24:44;;;;;;;31.30;21.10;;;;;;;2.68;90.02;101261.47;5114328;28;20212;-71
2022/12/07 06:27:10;;;;;;;32.97;21.43;;;;;;;2.60;90.59;101274.06;5114316;28;20193;-71
2022/12/07 06:29:37;;;;;;;35.23;19.97;;;;;;;2.58;90.12;101271.47;5114419;28;20200;-71
2022/12/07 06:32:04;;;;;;;33.13;21.13;;;;;;;2.52;90.27;101266.38;5114559;28;20304;-71
2022/12/07 06:34:31;;;;;;;31.87;21.30;;;;;;;2.55;90.33;101263.63;5115052;28;20277;-71
2022/12/07 06:36:57;;;;;;;32.90;19.77;;;;;;;2.52;90.53;101261.09;5114214;28;20190;-70
2022/12/07 06:39:26;;;;;;;31.83;20.17;;;;;;;2.57;90.03;101268.88;5114208;28;20196;-70
2022/12/07 06:41:53;;;;;;;37.07;20.77;;;;;;;2.51;90.49;101270.81;5114374;28;20186;-70
2022/12/07 06:44:21;;;;;;;38.37;20.73;;;;;;;2.50;90.79;101269.06;5114208;28;20242;-71
2022/12/07 06:46:48;;;;;;;34.43;20.10;;;;;;;2.54;90.51;101270.69;5114426;28;20176;-71
2022/12/07 06:49:15;;;;;;;39.80;20.93;;;;;;;2.46;91.02;101270.03;5114583;28;20198;-71
2022/12/07 06:51:42;;;;;;;29.53;20.87;;;;;;;2.50;89.89;101266.41;5114550;28;20186;-71
2022/12/07 06:54:09;;;;;;;41.17;20.37;;;;;;;2.44;90.02;101266.59;5114459;28;20202;-71
2022/12/07 06:56:35;;;;;;;32.40;20.43;;;;;;;2.42;90.22;101275.47;5113890;28;20232;-71
2022/12/07 06:59:02;;;;;;;31.40;18.87;;;;;;;2.34;90.13;101273.06;5114225;28;20181;-71
2022/12/07 07:01:29;;;;;;;29.67;18.93;;;;;;;2.36;90.45;101275.66;5113782;28;20193;-71
2022/12/07 07:03:55;;;;;;;32.53;20.67;;;;;;;2.30;90.01;101271.44;5113740;28;20204;-71
2022/12/07 07:06:21;;;;;;;35.73;21.10;;;;;;;2.29;90.27;101281.09;5113802;28;20182;-71
2022/12/07 07:08:48;;;;;;;38.37;19.90;;;;;;;2.29;90.03;101281.09;5114209;28;20612;-71
2022/12/07 07:11:14;;;;;;;25.47;18.93;;;;;;;2.33;90.35;101281.91;5113925;28;20253;-71
2022/12/07 07:13:41;;;;;;;27.93;18.27;;;;;;;2.34;90.34;101286.25;5113982;28;20190;-71
2022/12/07 07:16:07;;;;;;;39.50;18.63;;;;;;;2.40;89.50;101282.59;5113658;28;20692;-71
2022/12/07 07:18:34;;;;;;;30.80;20.03;;;;;;;2.33;90.01;101293.34;5113718;28;20189;-71
2022/12/07 07:21:01;;;;;;;27.50;19.80;;;;;;;2.26;89.69;101302.34;5113853;28;20565;-71
2022/12/07 07:23:27;;;;;;;25.93;18.03;;;;;;;2.27;89.80;101287.34;5113515;28;20215;-71
2022/12/07 07:25:54;;;;;;;32.57;19.87;;;;;;;2.28;89.96;101294.38;5113620;28;20649;-71
2022/12/07 07:28:20;;;;;;;27.50;18.40;;;;;;;2.32;90.28;101288.97;5113893;28;20194;-71
2022/12/07 07:30:46;;;;;;;38.20;19.83;;;;;;;2.39;89.77;101286.13;5113692;28;20678;-71
2022/12/07 07:33:13;;;;;;;35.93;19.37;;;;;;;2.33;89.98;101300.41;5117796;28;20182;-71
2022/12/07 07:35:39;;;;;;;29.67;18.60;;;;;;;2.37;90.01;101293.25;5117486;28;20218;-70
2022/12/07 07:38:06;;;;;;;33.40;20.57;;;;;;;2.30;90.28;101287.28;5117919;28;20192;-70
2022/12/07 07:40:33;;;;;;;26.70;18.57;;;;;;;2.36;90.71;101281.81;5117599;28;20196;-70
2022/12/07 07:42:59;;;;;;;31.23;18.37;;;;;;;2.27;90.38;101290.00;5118230;28;20181;-70
2022/12/07 07:45:27;;;;;;;28.20;18.40;;;;;;;2.32;90.37;101291.63;5117961;28;20525;-70
2022/12/07 07:47:53;;;;;;;34.13;19.07;;;;;;;2.32;89.78;101282.78;5117704;28;20186;-70
2022/12/07 07:50:21;;;;;;;30.10;18.67;;;;;;;2.25;90.17;101292.69;5117358;28;20209;-70
2022/12/07 07:52:48;;;;;;;29.80;19.27;;;;;;;2.35;90.39;101293.31;5117334;28;20176;-70
2022/12/07 07:55:15;;;;;;;29.27;18.33;;;;;;;2.43;90.34;101288.66;5117242;28;20209;-70
2022/12/07 07:57:43;;;;;;;27.13;18.07;;;;;;;2.47;90.08;101285.00;5117642;28;20226;-70
2022/12/07 08:00:17;;;;;;;40.87;19.53;;;;;;;2.44;90.29;101287.75;5117782;28;20177;-71
2022/12/07 08:02:43;;;;;;;27.17;17.50;;;;;;;2.48;90.22;101283.22;5117530;28;20607;-70
2022/12/07 08:05:11;;;;;;;34.73;17.93;;;;;;;2.52;90.06;101292.81;5117126;28;20689;-70
2022/12/07 08:07:38;;;;;;;26.47;17.03;;;;;;;2.51;90.87;101281.38;5117546;28;20175;-70
2022/12/07 08:10:05;;;;;;;21.97;16.77;;;;;;;2.48;90.85;101291.16;5117313;28;20200;-71
2022/12/07 08:12:35;;;;;;;29.53;17.23;;;;;;;2.54;90.67;101296.28;5117061;28;20184;-70
2022/12/07 08:15:02;;;;;;;30.87;16.90;;;;;;;2.58;90.90;101295.25;5117074;28;20209;-70
2022/12/07 08:17:28;;;;;;;26.50;17.03;;;;;;;2.64;90.63;101295.09;5117566;28;20612;-70
2022/12/07 08:19:55;;;;;;;38.77;18.93;;;;;;;2.69;90.56;101294.97;5117091;28;20199;-70
2022/12/07 08:22:21;;;;;;;40.67;17.73;;;;;;;2.70;91.08;101300.19;5116844;28;20694;-70
2022/12/07 08:24:47;;;;;;;27.03;17.53;;;;;;;2.80;90.11;101306.06;5117387;28;20212;-70
2022/12/07 08:27:14;;;;;;;32.83;17.33;;;;;;;2.80;90.80;101303.41;5117105;28;20184;-70
2022/12/07 08:29:40;;;;;;;22.90;16.93;;;;;;;2.92;90.02;101297.78;5116944;28;20186;-70
2022/12/07 08:32:07;;;;;;;27.97;17.77;;;;;;;2.92;90.40;101300.41;5116854;28;20188;-71
2022/12/07 08:34:36;;;;;;;31.33;17.47;;;;;;;2.97;90.33;101300.28;5116447;28;20233;-70
2022/12/07 08:37:03;;;;;;;32.27;17.37;;;;;;;3.00;90.33;101304.59;5116739;28;20212;-70
2022/12/07 08:39:29;;;;;;;30.10;16.73;;;;;;;2.95;90.38;101310.91;5116499;28;20177;-70
2022/12/07 08:41:57;;;;;;;22.80;16.00;;;;;;;2.98;90.03;101307.28;5116553;28;20166;-70
2022/12/07 08:44:23;;;;;;;21.07;15.90;;;;;;;2.94;89.42;101311.78;5116322;28;20579;-70
2022/12/07 08:46:55;;;;;;;23.97;15.97;;;;;;;2.94;89.31;101314.44;5116562;28;20249;-70
2022/12/07 08:49:36;;;;;;;28.30;16.33;;;;;;;2.96;89.90;101314.41;5116358;28;20207;-70
2022/12/07 08:52:05;;;;;;;26.03;15.33;;;;;;;2.91;89.96;101316.31;5116341;28;20179;-70
2022/12/07 08:54:34;;;;;;;25.20;15.90;;;;;;;2.99;88.96;101314.28;5116434;28;20206;-70
2022/12/07 08:57:01;;;;;;;27.77;16.23;;;;;;;2.97;89.66;101306.44;5116070;28;20213;-70
2022/12/07 08:59:28;;;;;;;25.30;16.43;;;;;;;3.08;89.55;101318.44;5116426;28;20176;-70
2022/12/07 09:01:55;;;;;;;23.93;15.13;;;;;;;3.12;89.94;101312.16;5116310;28;20211;-70
2022/12/07 09:04:21;;;;;;;24.57;15.53;;;;;;;3.16;89.20;101308.47;5115936;28;20211;-70
2022/12/07 09:06:48;;;;;;;27.77;15.30;;;;;;;3.21;89.59;101306.56;5115972;28;20198;-70
2022/12/07 09:09:15;;;;;;;23.57;14.53;;;;;;;3.33;89.87;101307.97;5115917;28;20550;-70
2022/12/07 09:11:41;;;;;;;26.00;15.27;;;;;;;3.30;89.57;101308.03;5115835;28;20211;-70
2022/12/07 09:14:08;;;;;;;23.47;15.00;;;;;;;3.35;88.56;101304.34;5116280;28;20696;-70
2022/12/07 09:16:34;;;;;;;30.80;14.73;;;;;;;3.44;89.15;101312.91;5115933;28;20555;-70
2022/12/07 09:19:01;;;;;;;29.37;14.97;;;;;;;3.44;88.74;101316.41;5116239;28;20197;-70
2022/12/07 09:21:27;;;;;;;20.23;13.73;;;;;;;3.43;88.72;101319.13;5115827;28;20204;-70
2022/12/07 09:23:54;;;;;;;15.93;12.67;;;;;;;3.43;88.46;101312.03;5115568;28;20685;-70
2022/12/07 09:26:20;;;;;;;21.23;13.87;;;;;;;3.44;87.61;101312.91;5116134;28;20177;-70
2022/12/07 09:28:46;;;;;;;22.97;14.27;;;;;;;3.42;88.02;101310.28;5115756;28;20192;-70
2022/12/07 09:31:13;;;;;;;23.63;14.27;;;;;;;3.47;88.02;101313.69;5115505;28;20196;-70
2022/12/07 09:33:58;;;;;;;17.33;13.20;;;;;;;3.41;87.48;101311.22;5115662;28;20758;-70
2022/12/07 09:36:26;;;;;;;18.27;13.27;;;;;;;3.50;87.85;101315.34;5115339;28;20201;-70
2022/12/07 09:38:52;;;;;;;28.00;13.87;;;;;;;3.52;87.94;101313.50;5115326;28;20189;-70
2022/12/07 09:41:20;;;;;;;22.70;14.03;;;;;;;3.54;87.91;101303.72;5115555;28;20566;-70
2022/12/07 09:43:47;;;;;;;19.47;12.30;;;;;;;3.45;87.71;101307.56;5115195;28;20294;-70
2022/12/07 09:46:17;;;;;;;23.87;11.67;;;;;;;3.50;87.37;101302.97;5115198;28;20240;-70
2022/12/07 09:48:45;;;;;;;20.40;12.37;;;;;;;3.54;87.03;101304.59;5116105;28;20519;-70
2022/12/07 09:51:18;;;;;;;23.43;11.83;;;;;;;3.53;87.26;101299.34;5115705;28;20182;-70
2022/12/07 09:53:52;;;;;;;17.77;12.00;;;;;;;3.55;87.95;101295.75;5114667;28;20205;-70
2022/12/07 09:56:19;;;;;;;17.40;12.50;;;;;;;3.61;87.29;101287.56;5114803;28;20214;-70
2022/12/07 09:58:46;;;;;;;13.07;11.50;;;;;;;3.63;86.77;101296.34;5114956;28;20199;-70
2022/12/07 10:01:21;;;;;;;13.97;12.00;;;;;;;3.58;87.09;101287.69;5115280;28;20203;-70
2022/12/07 10:04:13;;;;;;;16.57;11.03;;;;;;;3.55;86.82;101289.59;5115118;28;20693;-70
2022/12/07 10:06:41;;;;;;;17.27;12.37;;;;;;;3.55;86.79;101286.94;5115112;28;20176;-70
2022/12/07 10:09:12;;;;;;;12.13;10.97;;;;;;;3.55;86.53;101292.22;5115098;28;20537;-70
2022/12/07 10:12:11;;;;;;;31.43;10.90;;;;;;;3.59;86.29;101296.47;5115212;28;20634;-70
2022/12/07 10:14:52;;;;;;;19.60;11.63;;;;;;;3.62;86.40;101291.09;5115192;28;20209;-70
2022/12/07 10:17:43;;;;;;;10.50;9.17;;;;;;;3.71;86.83;101293.44;5114873;28;20197;-70
2022/12/07 10:20:17;;;;;;;18.93;10.97;;;;;;;3.78;86.22;101294.97;5114808;28;20176;-70
2022/12/07 10:22:59;;;;;;;15.53;10.40;;;;;;;3.90;85.80;101290.13;5115122;28;20180;-70
2022/12/07 10:25:32;;;;;;;15.37;9.60;;;;;;;3.95;86.46;101291.72;5114387;28;20216;-70
2022/12/07 10:28:01;;;;;;;19.53;11.73;;;;;;;3.92;86.08;101277.72;5115021;28;20259;-70
2022/12/07 10:30:29;;;;;;;16.60;11.07;;;;;;;4.07;86.37;101278.94;5114366;28;20592;-70
2022/12/07 10:32:55;;;;;;;20.43;11.93;;;;;;;4.07;85.28;101274.53;5114270;28;20193;-70
2022/12/07 10:35:29;;;;;;;14.57;11.67;;;;;;;4.19;86.14;101279.38;5114226;28;20705;-70
2022/12/07 10:37:59;;;;;;;17.30;11.77;;;;;;;4.10;85.25;101276.22;5114211;28;20178;-70
2022/12/07 10:40:34;;;;;;;20.60;12.03;;;;;;;4.15;85.43;101274.25;5096171;28;20192;-70
2022/12/07 10:43:05;;;;;;;10.80;9.73;;;;;;;4.17;84.97;101262.66;5114170;28;20191;-70
2022/12/07 10:45:33;;;;;;;18.03;10.40;;;;;;;4.16;85.56;101254.75;5114177;28;20575;-70
2022/12/07 10:48:33;;;;;;;20.97;12.30;;;;;;;4.20;84.86;101259.03;5114650;28;20276;-70
2022/12/07 10:51:14;;;;;;;12.97;10.00;;;;;;;4.27;85.20;101260.53;5114005;28;20174;-71
2022/12/07 10:53:52;;;;;;;13.17;10.13;;;;;;;4.27;85.08;101249.94;5114220;28;20615;-70
2022/12/07 10:56:37;;;;;;;20.97;10.60;;;;;;;4.40;85.62;101250.34;5114185;28;20650;-70
2022/12/07 10:59:28;;;;;;;11.87;9.73;;;;;;;4.51;84.25;101247.28;5113938;28;20259;-70
2022/12/07 11:02:38;;;;;;;13.40;8.60;;;;;;;4.56;84.30;101245.31;5114179;28;20177;-70
2022/12/07 11:05:20;;;;;;;10.30;9.30;;;;;;;4.48;84.66;101250.91;5113984;28;20197;-70
2022/12/07 11:08:15;;;;;;;9.57;8.87;;;;;;;4.60;84.52;101252.25;5114107;28;20259;-70
2022/12/07 11:10:49;;;;;;;8.93;8.13;;;;;;;4.67;84.66;101238.69;5114360;28;20208;-70
2022/12/07 11:13:35;;;;;;;15.87;8.00;;;;;;;4.68;83.56;101242.19;5114066;28;20180;-70
2022/12/07 11:16:21;;;;;;;9.60;8.33;;;;;;;4.70;83.64;101235.03;5113958;28;20212;-70
2022/12/07 11:18:59;;;;;;;15.80;8.50;;;;;;;4.74;83.86;101230.47;5113588;28;20279;-70
2022/12/07 11:21:45;;;;;;;9.60;8.00;;;;;;;4.80;83.24;101230.22;5113552;28;20681;-70
2022/12/07 11:24:32;;;;;;;15.53;8.20;;;;;;;4.95;83.12;101223.44;5113623;28;20282;-70
2022/12/07 11:27:11;;;;;;;8.00;7.47;;;;;;;5.00;83.20;101229.41;5113935;28;20534;-70
2022/12/07 11:29:55;;;;;;;9.27;6.53;;;;;;;4.89;81.72;101219.25;5114142;28;20178;-70
2022/12/07 11:32:52;;;;;;;7.77;6.07;;;;;;;4.88;82.01;101214.84;5114099;28;20177;-70
2022/12/07 11:35:38;;;;;;;12.63;6.90;;;;;;;4.88;81.17;101212.19;5113685;28;20573;-70
2022/12/07 11:38:12;;;;;;;7.67;6.23;;;;;;;4.80;81.24;101206.34;5113441;28;20206;-70